Terminal Aerodrome Forecast
Issued by NWS Jackson, MS

Home | Current Version | Previous Version | Text Only | Print | Product List | Glossary On
Versions: 1 2 3 4 5 6 7 8 9 10 11 12
268
FTUS44 KJAN 272320
TAFJAN
TAF
KJAN 272320Z 2800/2824 19011KT P6SM VCSH BKN050
     FM280800 19004KT P6SM OVC015
     FM281000 19003KT 4SM BR OVC007
     FM281400 19004KT P6SM OVC015
     FM281700 19005KT P6SM OVC050=

USA.gov is the U.S. government's official web portal to all federal, state and local government web resources and services.